Kihei, Hawaii
Current Conditions -  °F | °C
As of 6:54 PM on Thursday 30 Oct 2014 (Local Time) from PHOG Reporting Station
Broken Clouds Broken Clouds  
Wind Chill: 76°   Ceiling: 6000
Heat Index: 76°   Visibility: 10mi
Dew Point: 66°   Wind: 12mph
Humidity: 71%   Direction: 70°ENE
Pressure: 30.05"   Gusts: 25mph
Location:  20.78°N, 156.46°W
Report Text: PHOG 310454Z 07010G22KT 10SM FEW035 SCT048 BKN060 24/19 A3005 RMK AO2 RAB39E50 SLP179 P0000 T02440189
Loading
Personal Weather Stations






























Interactive Weather Map
Tropical Storm Tracking
New forecast layout! Learn more

10-Day Weather Forecast

Advertisements
Track Severe Weather on mobile